Terminal Aerodrome Forecast
Issued by NWS

Home | Current Version | Previous Version | Text Only | Print | Product List | Glossary On
Versions: 1 2 3 4 5 6 7 8 9 10 11 12 13 14 15 16 17
245
FTUS43 KAPX 032151 AAC
TAFMBL
TAF AMD
KMBL 032151Z 0322/0418 23006KT P6SM SCT021 OVC040
      TEMPO 0322/0401 BKN021 OVC035
     FM040100 VRB03KT P6SM OVC035
     FM041400 17004KT P6SM OVC035=

USA.gov is the U.S. government's official web portal to all federal, state and local government web resources and services.